CAY833 MUHA-MWCR
Flight info
| Callsign | CAY833 |
|---|---|
| Flight time | 0h 47m |
| Altitude | 29000 |
| Route | DUTAN5B DUTAN J5 UCL UG448 ATUVI GORAN3 |
| Aircraft | B738/M-SDE2E3FGHIRWXY/LB1 |
Departure
| Time | 2026-05-05 06:39 |
|---|---|
| Airport | José Martí International Airport (MUHA) |
Arrival
| Time | 2026-05-05 07:26 |
|---|---|
| Airport | Owen Roberts International Airport (MWCR) |
| Time | Latitude | Longitude | Altitude | Speed | Heading |
|---|---|---|---|---|---|
| 2026-05-05 06:00 | 22.99687 | -82.39248 | 215 ft | 0 kts | 149° |
| 2026-05-05 06:32 | 22.99694 | -82.39252 | 215 ft | 7 kts | 149° |
| 2026-05-05 06:32 | 22.99724 | -82.39272 | 216 ft | 0 kts | 149° |
| 2026-05-05 06:33 | 22.99727 | -82.39259 | 220 ft | 4 kts | 45° |
| 2026-05-05 06:34 | 22.99732 | -82.39257 | 223 ft | 0 kts | 13° |
| 2026-05-05 06:35 | 22.99751 | -82.39254 | 220 ft | 8 kts | 7° |
| 2026-05-05 06:35 | 22.99830 | -82.39241 | 219 ft | 14 kts | 4° |
| 2026-05-05 06:35 | 22.99891 | -82.39262 | 219 ft | 0 kts | 328° |
| 2026-05-05 06:36 | 22.99894 | -82.39264 | 216 ft | 3 kts | 327° |
| 2026-05-05 06:37 | 22.99935 | -82.39313 | 215 ft | 14 kts | 294° |
| 2026-05-05 06:37 | 22.99912 | -82.39400 | 217 ft | 0 kts | 236° |
| 2026-05-05 06:38 | 22.99802 | -82.39569 | 213 ft | 71 kts | 234° |
| 2026-05-05 06:38 | 22.99343 | -82.40260 | 217 ft | 152 kts | 234° |
| 2026-05-05 06:38 | 22.98630 | -82.41365 | 634 ft | 189 kts | 238° |
| 2026-05-05 06:39 | 22.97923 | -82.42525 | 1872 ft | 176 kts | 235° |
| 2026-05-05 06:39 | 22.97144 | -82.43495 | 3060 ft | 171 kts | 217° |
| 2026-05-05 06:39 | 22.95914 | -82.43813 | 3471 ft | 205 kts | 172° |
| 2026-05-05 06:39 | 22.94572 | -82.43047 | 3727 ft | 234 kts | 144° |
| 2026-05-05 06:40 | 22.93250 | -82.41905 | 4094 ft | 249 kts | 144° |
| 2026-05-05 06:40 | 22.91861 | -82.40730 | 4666 ft | 256 kts | 145° |
| 2026-05-05 06:40 | 22.90411 | -82.39553 | 5162 ft | 269 kts | 146° |
| 2026-05-05 06:40 | 22.88858 | -82.38339 | 5700 ft | 281 kts | 147° |
| 2026-05-05 06:41 | 22.87249 | -82.37115 | 6576 ft | 283 kts | 147° |
| 2026-05-05 06:41 | 22.85620 | -82.35899 | 7425 ft | 286 kts | 148° |
| 2026-05-05 06:41 | 22.83963 | -82.34680 | 8242 ft | 290 kts | 148° |
| 2026-05-05 06:41 | 22.82278 | -82.33453 | 9060 ft | 294 kts | 149° |
| 2026-05-05 06:42 | 22.80569 | -82.32215 | 9886 ft | 298 kts | 149° |
| 2026-05-05 06:42 | 22.78823 | -82.30956 | 10484 ft | 310 kts | 149° |
| 2026-05-05 06:42 | 22.76949 | -82.29611 | 10655 ft | 336 kts | 149° |
| 2026-05-05 06:42 | 22.74948 | -82.28172 | 11044 ft | 351 kts | 149° |
| 2026-05-05 06:43 | 22.72903 | -82.26700 | 11775 ft | 354 kts | 149° |
| 2026-05-05 06:43 | 22.70864 | -82.25233 | 12419 ft | 360 kts | 149° |
| 2026-05-05 06:43 | 22.68758 | -82.23721 | 13038 ft | 366 kts | 149° |
| 2026-05-05 06:43 | 22.66619 | -82.22192 | 13718 ft | 370 kts | 150° |
| 2026-05-05 06:44 | 22.64418 | -82.20702 | 14324 ft | 374 kts | 152° |
| 2026-05-05 06:44 | 22.62182 | -82.19243 | 14928 ft | 377 kts | 152° |
| 2026-05-05 06:44 | 22.59914 | -82.17781 | 15533 ft | 381 kts | 153° |
| 2026-05-05 06:44 | 22.57622 | -82.16303 | 16125 ft | 385 kts | 152° |
| 2026-05-05 06:45 | 22.55316 | -82.14810 | 16723 ft | 388 kts | 152° |
| 2026-05-05 06:45 | 22.52988 | -82.13298 | 17295 ft | 392 kts | 152° |
| 2026-05-05 06:45 | 22.50638 | -82.11768 | 17869 ft | 396 kts | 152° |
| 2026-05-05 06:45 | 22.48265 | -82.10221 | 18398 ft | 400 kts | 152° |
| 2026-05-05 06:46 | 22.45865 | -82.08655 | 18871 ft | 404 kts | 152° |
| 2026-05-05 06:46 | 22.43475 | -82.07095 | 19309 ft | 409 kts | 152° |
| 2026-05-05 06:46 | 22.40994 | -82.05476 | 19764 ft | 413 kts | 152° |
| 2026-05-05 06:46 | 22.38523 | -82.03864 | 20216 ft | 417 kts | 152° |
| 2026-05-05 06:47 | 22.36025 | -82.02235 | 20666 ft | 421 kts | 152° |
| 2026-05-05 06:47 | 22.33534 | -82.00611 | 21106 ft | 425 kts | 152° |
| 2026-05-05 06:47 | 22.30957 | -81.98932 | 21545 ft | 430 kts | 152° |
| 2026-05-05 06:47 | 22.28383 | -81.97256 | 21974 ft | 434 kts | 152° |
| 2026-05-05 06:48 | 22.25817 | -81.95586 | 22396 ft | 438 kts | 152° |
| 2026-05-05 06:48 | 22.23200 | -81.93883 | 22835 ft | 440 kts | 152° |
| 2026-05-05 06:48 | 22.20565 | -81.92168 | 23289 ft | 443 kts | 151° |
| 2026-05-05 06:48 | 22.17912 | -81.90443 | 23670 ft | 447 kts | 151° |
| 2026-05-05 06:49 | 22.15231 | -81.88701 | 24009 ft | 451 kts | 152° |
| 2026-05-05 06:49 | 22.12541 | -81.86954 | 24389 ft | 453 kts | 152° |
| 2026-05-05 06:49 | 22.09837 | -81.85198 | 24770 ft | 455 kts | 152° |
| 2026-05-05 06:49 | 22.07113 | -81.83431 | 25132 ft | 457 kts | 152° |
| 2026-05-05 06:50 | 22.04380 | -81.81658 | 25484 ft | 460 kts | 152° |
| 2026-05-05 06:50 | 22.01631 | -81.79875 | 25834 ft | 462 kts | 152° |
| 2026-05-05 06:50 | 21.98867 | -81.78084 | 26181 ft | 465 kts | 152° |
| 2026-05-05 06:50 | 21.96091 | -81.76287 | 26527 ft | 467 kts | 153° |
| 2026-05-05 06:51 | 21.93302 | -81.74481 | 26863 ft | 469 kts | 153° |
| 2026-05-05 06:51 | 21.90495 | -81.72664 | 27190 ft | 471 kts | 153° |
| 2026-05-05 06:51 | 21.87679 | -81.70843 | 27552 ft | 473 kts | 153° |
| 2026-05-05 06:51 | 21.84850 | -81.69013 | 27871 ft | 475 kts | 153° |
| 2026-05-05 06:52 | 21.82014 | -81.67180 | 28176 ft | 477 kts | 153° |
| 2026-05-05 06:52 | 21.79194 | -81.65359 | 28497 ft | 479 kts | 153° |
| 2026-05-05 06:52 | 21.76332 | -81.63511 | 28852 ft | 480 kts | 153° |
| 2026-05-05 06:52 | 21.73464 | -81.61659 | 29012 ft | 484 kts | 154° |
| 2026-05-05 06:53 | 21.70568 | -81.59791 | 29006 ft | 485 kts | 153° |
| 2026-05-05 06:53 | 21.64822 | -81.56084 | 28996 ft | 478 kts | 154° |
| 2026-05-05 06:54 | 21.58758 | -81.53404 | 29013 ft | 467 kts | 172° |
| 2026-05-05 06:54 | 21.52393 | -81.52611 | 29010 ft | 460 kts | 182° |
| 2026-05-05 06:55 | 21.45990 | -81.52231 | 29008 ft | 461 kts | 182° |
| 2026-05-05 06:55 | 21.39575 | -81.51823 | 29004 ft | 462 kts | 181° |
| 2026-05-05 06:56 | 21.33148 | -81.51382 | 29005 ft | 463 kts | 181° |
| 2026-05-05 06:56 | 21.26721 | -81.50929 | 29002 ft | 463 kts | 181° |
| 2026-05-05 06:57 | 21.20301 | -81.50475 | 29006 ft | 461 kts | 181° |
| 2026-05-05 06:57 | 21.13898 | -81.50025 | 29004 ft | 460 kts | 181° |
| 2026-05-05 06:58 | 21.07554 | -81.49580 | 29005 ft | 459 kts | 181° |
| 2026-05-05 06:58 | 21.01178 | -81.49134 | 29005 ft | 459 kts | 181° |
| 2026-05-05 06:59 | 20.94809 | -81.48689 | 29006 ft | 459 kts | 181° |
| 2026-05-05 06:59 | 20.88435 | -81.48244 | 28997 ft | 459 kts | 181° |
| 2026-05-05 07:00 | 20.82064 | -81.47799 | 29001 ft | 456 kts | 181° |
| 2026-05-05 07:00 | 20.78932 | -81.47577 | 28852 ft | 447 kts | 181° |
| 2026-05-05 07:00 | 20.75853 | -81.47359 | 28466 ft | 439 kts | 181° |
| 2026-05-05 07:00 | 20.72823 | -81.47146 | 27995 ft | 435 kts | 181° |
| 2026-05-05 07:01 | 20.69808 | -81.46936 | 27541 ft | 431 kts | 181° |
| 2026-05-05 07:01 | 20.66829 | -81.46729 | 27087 ft | 428 kts | 181° |
| 2026-05-05 07:01 | 20.63871 | -81.46525 | 26618 ft | 424 kts | 181° |
| 2026-05-05 07:01 | 20.60933 | -81.46321 | 26164 ft | 422 kts | 180° |
| 2026-05-05 07:02 | 20.58009 | -81.46119 | 25699 ft | 419 kts | 180° |
| 2026-05-05 07:02 | 20.55106 | -81.45917 | 25244 ft | 417 kts | 180° |
| 2026-05-05 07:02 | 20.52215 | -81.45717 | 24780 ft | 416 kts | 180° |
| 2026-05-05 07:02 | 20.49328 | -81.45517 | 24307 ft | 415 kts | 180° |
| 2026-05-05 07:03 | 20.46460 | -81.45318 | 23855 ft | 413 kts | 179° |
| 2026-05-05 07:03 | 20.43587 | -81.45119 | 23351 ft | 413 kts | 179° |
| 2026-05-05 07:03 | 20.40725 | -81.44920 | 22850 ft | 410 kts | 179° |
| 2026-05-05 07:03 | 20.37922 | -81.44725 | 22386 ft | 407 kts | 179° |
| 2026-05-05 07:04 | 20.35067 | -81.44526 | 21924 ft | 405 kts | 179° |
| 2026-05-05 07:04 | 20.32267 | -81.44332 | 21473 ft | 402 kts | 179° |
| 2026-05-05 07:04 | 20.29488 | -81.44139 | 21033 ft | 399 kts | 179° |
| 2026-05-05 07:04 | 20.26723 | -81.43947 | 20591 ft | 397 kts | 179° |
| 2026-05-05 07:05 | 20.24014 | -81.43760 | 20154 ft | 394 kts | 179° |
| 2026-05-05 07:05 | 20.21286 | -81.43571 | 19707 ft | 393 kts | 179° |
| 2026-05-05 07:05 | 20.18567 | -81.43383 | 19271 ft | 391 kts | 179° |
| 2026-05-05 07:05 | 20.15859 | -81.43196 | 18824 ft | 389 kts | 179° |
| 2026-05-05 07:06 | 20.13154 | -81.43009 | 18378 ft | 388 kts | 178° |
| 2026-05-05 07:06 | 20.10465 | -81.42823 | 17901 ft | 386 kts | 178° |
| 2026-05-05 07:06 | 20.07794 | -81.42638 | 17447 ft | 383 kts | 178° |
| 2026-05-05 07:06 | 20.05142 | -81.42455 | 17008 ft | 380 kts | 178° |
| 2026-05-05 07:07 | 20.02512 | -81.42273 | 16570 ft | 377 kts | 178° |
| 2026-05-05 07:07 | 19.99902 | -81.42093 | 16154 ft | 374 kts | 178° |
| 2026-05-05 07:07 | 19.97318 | -81.41914 | 15780 ft | 370 kts | 178° |
| 2026-05-05 07:07 | 19.94757 | -81.41736 | 15377 ft | 367 kts | 178° |
| 2026-05-05 07:08 | 19.92218 | -81.41560 | 14961 ft | 365 kts | 178° |
| 2026-05-05 07:08 | 19.89697 | -81.41386 | 14567 ft | 362 kts | 178° |
| 2026-05-05 07:08 | 19.87187 | -81.41212 | 14158 ft | 360 kts | 178° |
| 2026-05-05 07:08 | 19.84690 | -81.41039 | 13735 ft | 359 kts | 177° |
| 2026-05-05 07:09 | 19.82205 | -81.40867 | 13282 ft | 356 kts | 177° |
| 2026-05-05 07:09 | 19.79745 | -81.40697 | 12859 ft | 354 kts | 177° |
| 2026-05-05 07:09 | 19.77296 | -81.40528 | 12443 ft | 351 kts | 177° |
| 2026-05-05 07:09 | 19.74904 | -81.40362 | 12047 ft | 348 kts | 177° |
| 2026-05-05 07:10 | 19.72500 | -81.40196 | 11652 ft | 345 kts | 177° |
| 2026-05-05 07:10 | 19.70109 | -81.40031 | 11252 ft | 342 kts | 177° |
| 2026-05-05 07:10 | 19.67743 | -81.39867 | 10862 ft | 340 kts | 177° |
| 2026-05-05 07:10 | 19.65396 | -81.39705 | 10586 ft | 334 kts | 177° |
| 2026-05-05 07:11 | 19.63109 | -81.39547 | 10432 ft | 325 kts | 177° |
| 2026-05-05 07:11 | 19.60885 | -81.39394 | 10281 ft | 315 kts | 176° |
| 2026-05-05 07:11 | 19.58727 | -81.39245 | 10145 ft | 307 kts | 176° |
| 2026-05-05 07:11 | 19.56627 | -81.39133 | 10012 ft | 298 kts | 183° |
| 2026-05-05 07:12 | 19.54719 | -81.39789 | 9961 ft | 285 kts | 215° |
| 2026-05-05 07:12 | 19.53439 | -81.41368 | 9549 ft | 287 kts | 248° |
| 2026-05-05 07:12 | 19.53062 | -81.43424 | 9312 ft | 284 kts | 263° |
| 2026-05-05 07:12 | 19.52713 | -81.45479 | 8994 ft | 283 kts | 254° |
| 2026-05-05 07:13 | 19.52147 | -81.47471 | 8696 ft | 281 kts | 249° |
| 2026-05-05 07:13 | 19.51401 | -81.49384 | 8409 ft | 280 kts | 246° |
| 2026-05-05 07:13 | 19.50628 | -81.51246 | 8127 ft | 279 kts | 245° |
| 2026-05-05 07:13 | 19.49817 | -81.53109 | 7841 ft | 278 kts | 239° |
| 2026-05-05 07:14 | 19.48614 | -81.54695 | 7572 ft | 275 kts | 226° |
| 2026-05-05 07:14 | 19.47400 | -81.56265 | 7298 ft | 275 kts | 231° |
| 2026-05-05 07:14 | 19.46251 | -81.57876 | 7032 ft | 274 kts | 232° |
| 2026-05-05 07:14 | 19.45111 | -81.59492 | 6758 ft | 273 kts | 232° |
| 2026-05-05 07:15 | 19.43977 | -81.61104 | 6498 ft | 272 kts | 232° |
| 2026-05-05 07:15 | 19.42852 | -81.62708 | 6237 ft | 271 kts | 232° |
| 2026-05-05 07:15 | 19.41738 | -81.64304 | 6021 ft | 268 kts | 232° |
| 2026-05-05 07:15 | 19.40638 | -81.65880 | 5822 ft | 264 kts | 232° |
| 2026-05-05 07:16 | 19.39557 | -81.67428 | 5661 ft | 258 kts | 232° |
| 2026-05-05 07:16 | 19.38502 | -81.68946 | 5520 ft | 252 kts | 232° |
| 2026-05-05 07:16 | 19.37476 | -81.70426 | 5419 ft | 246 kts | 232° |
| 2026-05-05 07:16 | 19.36350 | -81.71775 | 5328 ft | 244 kts | 213° |
| 2026-05-05 07:17 | 19.34782 | -81.72397 | 5270 ft | 245 kts | 182° |
| 2026-05-05 07:17 | 19.33046 | -81.72215 | 5153 ft | 259 kts | 168° |
| 2026-05-05 07:17 | 19.31292 | -81.71829 | 4935 ft | 260 kts | 167° |
| 2026-05-05 07:17 | 19.29537 | -81.71421 | 4730 ft | 256 kts | 167° |
| 2026-05-05 07:18 | 19.27805 | -81.71014 | 4521 ft | 253 kts | 166° |
| 2026-05-05 07:18 | 19.26103 | -81.70613 | 4345 ft | 248 kts | 166° |
| 2026-05-05 07:18 | 19.24438 | -81.70230 | 4195 ft | 242 kts | 166° |
| 2026-05-05 07:18 | 19.22909 | -81.69613 | 4095 ft | 232 kts | 139° |
| 2026-05-05 07:19 | 19.22081 | -81.68220 | 4044 ft | 228 kts | 100° |
| 2026-05-05 07:19 | 19.22148 | -81.66541 | 3945 ft | 234 kts | 82° |
| 2026-05-05 07:19 | 19.22448 | -81.64774 | 3724 ft | 250 kts | 79° |
| 2026-05-05 07:19 | 19.22830 | -81.62977 | 3616 ft | 246 kts | 77° |
| 2026-05-05 07:20 | 19.23232 | -81.61247 | 3496 ft | 239 kts | 77° |
| 2026-05-05 07:20 | 19.23627 | -81.59582 | 3414 ft | 226 kts | 77° |
| 2026-05-05 07:20 | 19.23995 | -81.58037 | 3330 ft | 207 kts | 77° |
| 2026-05-05 07:20 | 19.24331 | -81.56624 | 3248 ft | 190 kts | 77° |
| 2026-05-05 07:21 | 19.24639 | -81.55324 | 3157 ft | 176 kts | 78° |
| 2026-05-05 07:21 | 19.24931 | -81.54090 | 3083 ft | 168 kts | 78° |
| 2026-05-05 07:21 | 19.25205 | -81.52927 | 2904 ft | 160 kts | 78° |
| 2026-05-05 07:21 | 19.25473 | -81.51797 | 2757 ft | 158 kts | 79° |
| 2026-05-05 07:22 | 19.25739 | -81.50676 | 2616 ft | 153 kts | 78° |
| 2026-05-05 07:22 | 19.26000 | -81.49573 | 2466 ft | 157 kts | 78° |
| 2026-05-05 07:22 | 19.26264 | -81.48459 | 2256 ft | 157 kts | 78° |
| 2026-05-05 07:22 | 19.26529 | -81.47347 | 2075 ft | 156 kts | 78° |
| 2026-05-05 07:23 | 19.26794 | -81.46230 | 1842 ft | 155 kts | 78° |
| 2026-05-05 07:23 | 19.26968 | -81.45498 | 1722 ft | 155 kts | 78° |
| 2026-05-05 07:23 | 19.27229 | -81.44399 | 1509 ft | 154 kts | 78° |
| 2026-05-05 07:23 | 19.27490 | -81.43303 | 1316 ft | 154 kts | 78° |
| 2026-05-05 07:24 | 19.27836 | -81.41848 | 1042 ft | 154 kts | 78° |
| 2026-05-05 07:24 | 19.28097 | -81.40748 | 844 ft | 155 kts | 77° |
| 2026-05-05 07:24 | 19.28349 | -81.39646 | 639 ft | 154 kts | 79° |
| 2026-05-05 07:24 | 19.28515 | -81.38896 | 471 ft | 155 kts | 77° |
| 2026-05-05 07:25 | 19.28796 | -81.37781 | 242 ft | 159 kts | 75° |
| 2026-05-05 07:25 | 19.29067 | -81.36665 | 36 ft | 155 kts | 75° |
| 2026-05-05 07:25 | 19.29310 | -81.35657 | 14 ft | 123 kts | 75° |
| 2026-05-05 07:25 | 19.29462 | -81.35028 | 16 ft | 59 kts | 76° |
| 2026-05-05 07:26 | 19.29507 | -81.34895 | 19 ft | 11 kts | 28° |
| 2026-05-05 07:26 | 19.29561 | -81.34933 | 16 ft | 12 kts | 275° |
| 2026-05-05 07:26 | 19.29545 | -81.35024 | 16 ft | 11 kts | 256° |
| 2026-05-05 07:26 | 19.29544 | -81.35029 | 15 ft | 0 kts | 255° |
| 2026-05-05 07:27 | 19.29538 | -81.35053 | 16 ft | 9 kts | 255° |
| 2026-05-05 07:27 | 19.29513 | -81.35152 | 15 ft | 17 kts | 256° |
| 2026-05-05 07:28 | 19.29483 | -81.35284 | 15 ft | 20 kts | 256° |
| 2026-05-05 07:28 | 19.29447 | -81.35436 | 14 ft | 22 kts | 256° |
| 2026-05-05 07:28 | 19.29431 | -81.35554 | 14 ft | 9 kts | 292° |
| 2026-05-05 07:28 | 19.29465 | -81.35614 | 15 ft | 10 kts | 285° |
| 2026-05-05 07:29 | 19.29455 | -81.35709 | 15 ft | 14 kts | 258° |
| 2026-05-05 07:29 | 19.29488 | -81.35764 | 15 ft | 9 kts | 342° |
| 2026-05-05 07:29 | 19.29497 | -81.35767 | 15 ft | 0 kts | 344° |